sensor_id;sensor_type;location;lat;lon;timestamp;pressure;altitude;pressure_sealevel;temperature;humidity
62632;BME280;48703;51.248;-0.546;2023-11-21T00:01:04;100827;;;9.93;100.00
62632;BME280;48703;51.248;-0.546;2023-11-21T00:04:06;100830;;;9.90;100.00
62632;BME280;48703;51.248;-0.546;2023-11-21T00:07:08;100829;;;9.88;100.00
62632;BME280;48703;51.248;-0.546;2023-11-21T00:10:10;100831;;;9.88;100.00
62632;BME280;48703;51.248;-0.546;2023-11-21T00:13:12;100832;;;9.88;100.00
62632;BME280;48703;51.248;-0.546;2023-11-21T00:16:14;100835;;;9.87;100.00
62632;BME280;48703;51.248;-0.546;2023-11-21T00:19:16;100836;;;9.87;100.00
62632;BME280;48703;51.248;-0.546;2023-11-21T00:22:19;100839;;;9.86;100.00
62632;BME280;48703;51.248;-0.546;2023-11-21T00:25:21;100841;;;9.84;100.00
62632;BME280;48703;51.248;-0.546;2023-11-21T00:28:23;100848;;;9.83;100.00
62632;BME280;48703;51.248;-0.546;2023-11-21T00:31:25;100853;;;9.84;100.00
62632;BME280;48703;51.248;-0.546;2023-11-21T00:34:27;100856;;;9.84;100.00
62632;BME280;48703;51.248;-0.546;2023-11-21T00:37:29;100862;;;9.83;100.00
62632;BME280;48703;51.248;-0.546;2023-11-21T00:40:31;100865;;;9.81;100.00
62632;BME280;48703;51.248;-0.546;2023-11-21T00:43:33;100870;;;9.78;100.00
62632;BME280;48703;51.248;-0.546;2023-11-21T00:46:35;100878;;;9.75;100.00
62632;BME280;48703;51.248;-0.546;2023-11-21T00:49:37;100885;;;9.73;100.00
62632;BME280;48703;51.248;-0.546;2023-11-21T00:52:39;100886;;;9.73;100.00
62632;BME280;48703;51.248;-0.546;2023-11-21T00:55:42;100887;;;9.73;100.00
62632;BME280;48703;51.248;-0.546;2023-11-21T00:58:44;100887;;;9.69;100.00
62632;BME280;48703;51.248;-0.546;2023-11-21T01:01:46;100885;;;9.66;100.00
62632;BME280;48703;51.248;-0.546;2023-11-21T01:04:48;100880;;;9.64;100.00
62632;BME280;48703;51.248;-0.546;2023-11-21T01:07:50;100882;;;9.64;100.00
62632;BME280;48703;51.248;-0.546;2023-11-21T01:10:52;100886;;;9.64;100.00
62632;BME280;48703;51.248;-0.546;2023-11-21T01:13:54;100889;;;9.63;100.00
62632;BME280;48703;51.248;-0.546;2023-11-21T01:16:56;100892;;;9.65;100.00
62632;BME280;48703;51.248;-0.546;2023-11-21T01:19:58;100897;;;9.65;100.00
62632;BME280;48703;51.248;-0.546;2023-11-21T01:23:01;100903;;;9.66;100.00
62632;BME280;48703;51.248;-0.546;2023-11-21T01:26:03;100910;;;9.64;100.00
62632;BME280;48703;51.248;-0.546;2023-11-21T01:29:05;100916;;;9.62;100.00
62632;BME280;48703;51.248;-0.546;2023-11-21T01:32:07;100918;;;9.62;100.00
62632;BME280;48703;51.248;-0.546;2023-11-21T01:35:09;100920;;;9.62;100.00
62632;BME280;48703;51.248;-0.546;2023-11-21T01:38:11;100923;;;9.61;100.00
62632;BME280;48703;51.248;-0.546;2023-11-21T01:41:13;100925;;;9.61;100.00
62632;BME280;48703;51.248;-0.546;2023-11-21T01:44:15;100931;;;9.60;100.00
62632;BME280;48703;51.248;-0.546;2023-11-21T01:47:17;100934;;;9.60;100.00
62632;BME280;48703;51.248;-0.546;2023-11-21T01:50:20;100939;;;9.60;100.00
62632;BME280;48703;51.248;-0.546;2023-11-21T01:53:23;100943;;;9.60;100.00
62632;BME280;48703;51.248;-0.546;2023-11-21T01:56:24;100947;;;9.59;100.00
62632;BME280;48703;51.248;-0.546;2023-11-21T01:59:26;100951;;;9.61;100.00
62632;BME280;48703;51.248;-0.546;2023-11-21T02:02:28;100955;;;9.61;100.00
62632;BME280;48703;51.248;-0.546;2023-11-21T02:05:30;100959;;;9.60;100.00
62632;BME280;48703;51.248;-0.546;2023-11-21T02:08:32;100958;;;9.59;100.00
62632;BME280;48703;51.248;-0.546;2023-11-21T02:11:34;100960;;;9.59;100.00
62632;BME280;48703;51.248;-0.546;2023-11-21T02:14:36;100965;;;9.59;100.00
62632;BME280;48703;51.248;-0.546;2023-11-21T02:17:38;100964;;;9.61;100.00
62632;BME280;48703;51.248;-0.546;2023-11-21T02:20:41;100967;;;9.62;100.00
62632;BME280;48703;51.248;-0.546;2023-11-21T02:23:43;100973;;;9.61;100.00
62632;BME280;48703;51.248;-0.546;2023-11-21T02:26:45;100975;;;9.61;100.00
62632;BME280;48703;51.248;-0.546;2023-11-21T02:29:47;100980;;;9.60;100.00
62632;BME280;48703;51.248;-0.546;2023-11-21T02:32:49;100984;;;9.60;100.00
62632;BME280;48703;51.248;-0.546;2023-11-21T02:35:51;100986;;;9.60;100.00
62632;BME280;48703;51.248;-0.546;2023-11-21T02:38:53;100990;;;9.60;100.00
62632;BME280;48703;51.248;-0.546;2023-11-21T02:41:55;100997;;;9.58;100.00
62632;BME280;48703;51.248;-0.546;2023-11-21T02:44:57;101003;;;9.57;100.00
62632;BME280;48703;51.248;-0.546;2023-11-21T02:48:00;101005;;;9.57;100.00
62632;BME280;48703;51.248;-0.546;2023-11-21T02:51:02;101008;;;9.58;100.00
62632;BME280;48703;51.248;-0.546;2023-11-21T02:54:04;101007;;;9.59;100.00
62632;BME280;48703;51.248;-0.546;2023-11-21T02:57:06;101008;;;9.59;100.00
62632;BME280;48703;51.248;-0.546;2023-11-21T03:00:08;101012;;;9.60;100.00
62632;BME280;48703;51.248;-0.546;2023-11-21T03:03:10;101017;;;9.61;100.00
62632;BME280;48703;51.248;-0.546;2023-11-21T03:06:12;101024;;;9.60;100.00
62632;BME280;48703;51.248;-0.546;2023-11-21T03:09:14;101028;;;9.61;100.00
62632;BME280;48703;51.248;-0.546;2023-11-21T03:12:17;101034;;;9.61;100.00
62632;BME280;48703;51.248;-0.546;2023-11-21T03:15:19;101037;;;9.62;100.00
62632;BME280;48703;51.248;-0.546;2023-11-21T03:18:21;101039;;;9.63;100.00
62632;BME280;48703;51.248;-0.546;2023-11-21T03:21:23;101038;;;9.64;100.00
62632;BME280;48703;51.248;-0.546;2023-11-21T03:24:25;101042;;;9.63;100.00
62632;BME280;48703;51.248;-0.546;2023-11-21T03:27:27;101042;;;9.64;100.00
62632;BME280;48703;51.248;-0.546;2023-11-21T03:30:29;101043;;;9.64;100.00
62632;BME280;48703;51.248;-0.546;2023-11-21T03:33:31;101043;;;9.65;100.00
62632;BME280;48703;51.248;-0.546;2023-11-21T03:36:33;101047;;;9.66;100.00
62632;BME280;48703;51.248;-0.546;2023-11-21T03:39:35;101051;;;9.67;100.00
62632;BME280;48703;51.248;-0.546;2023-11-21T03:42:38;101054;;;9.67;100.00
62632;BME280;48703;51.248;-0.546;2023-11-21T03:45:40;101055;;;9.67;100.00
62632;BME280;48703;51.248;-0.546;2023-11-21T03:48:42;101060;;;9.66;100.00
62632;BME280;48703;51.248;-0.546;2023-11-21T03:51:44;101066;;;9.68;100.00
62632;BME280;48703;51.248;-0.546;2023-11-21T03:54:46;101073;;;9.68;100.00
62632;BME280;48703;51.248;-0.546;2023-11-21T03:57:48;101080;;;9.68;100.00
62632;BME280;48703;51.248;-0.546;2023-11-21T04:00:50;101080;;;9.69;100.00
62632;BME280;48703;51.248;-0.546;2023-11-21T04:03:52;101082;;;9.69;100.00
62632;BME280;48703;51.248;-0.546;2023-11-21T04:06:54;101085;;;9.70;100.00
62632;BME280;48703;51.248;-0.546;2023-11-21T04:09:56;101089;;;9.71;100.00
62632;BME280;48703;51.248;-0.546;2023-11-21T04:12:59;101092;;;9.70;100.00
62632;BME280;48703;51.248;-0.546;2023-11-21T04:16:01;101097;;;9.70;100.00
62632;BME280;48703;51.248;-0.546;2023-11-21T04:19:03;101105;;;9.71;100.00
62632;BME280;48703;51.248;-0.546;2023-11-21T04:22:05;101108;;;9.71;100.00
62632;BME280;48703;51.248;-0.546;2023-11-21T04:25:08;101110;;;9.71;100.00
62632;BME280;48703;51.248;-0.546;2023-11-21T04:28:09;101115;;;9.72;100.00
62632;BME280;48703;51.248;-0.546;2023-11-21T04:31:11;101121;;;9.73;100.00
62632;BME280;48703;51.248;-0.546;2023-11-21T04:34:13;101129;;;9.72;100.00
62632;BME280;48703;51.248;-0.546;2023-11-21T04:37:15;101143;;;9.72;100.00
62632;BME280;48703;51.248;-0.546;2023-11-21T04:40:17;101155;;;9.69;100.00
62632;BME280;48703;51.248;-0.546;2023-11-21T04:43:20;101154;;;9.68;100.00
62632;BME280;48703;51.248;-0.546;2023-11-21T04:46:22;101155;;;9.67;100.00
62632;BME280;48703;51.248;-0.546;2023-11-21T04:49:24;101159;;;9.66;100.00
62632;BME280;48703;51.248;-0.546;2023-11-21T04:52:26;101163;;;9.65;100.00
62632;BME280;48703;51.248;-0.546;2023-11-21T04:55:28;101164;;;9.63;100.00
62632;BME280;48703;51.248;-0.546;2023-11-21T04:58:30;101167;;;9.61;100.00
62632;BME280;48703;51.248;-0.546;2023-11-21T05:01:32;101165;;;9.60;100.00
62632;BME280;48703;51.248;-0.546;2023-11-21T05:04:34;101162;;;9.59;100.00
62632;BME280;48703;51.248;-0.546;2023-11-21T05:07:37;101159;;;9.57;100.00
62632;BME280;48703;51.248;-0.546;2023-11-21T05:10:39;101162;;;9.56;100.00
62632;BME280;48703;51.248;-0.546;2023-11-21T05:13:41;101164;;;9.55;100.00
62632;BME280;48703;51.248;-0.546;2023-11-21T05:16:43;101168;;;9.55;100.00
62632;BME280;48703;51.248;-0.546;2023-11-21T05:19:45;101177;;;9.54;100.00
62632;BME280;48703;51.248;-0.546;2023-11-21T05:22:47;101181;;;9.52;100.00
62632;BME280;48703;51.248;-0.546;2023-11-21T05:25:49;101179;;;9.50;100.00
62632;BME280;48703;51.248;-0.546;2023-11-21T05:28:51;101178;;;9.51;100.00
62632;BME280;48703;51.248;-0.546;2023-11-21T05:31:53;101183;;;9.50;100.00
62632;BME280;48703;51.248;-0.546;2023-11-21T05:34:55;101189;;;9.49;100.00
62632;BME280;48703;51.248;-0.546;2023-11-21T05:37:57;101194;;;9.48;100.00
62632;BME280;48703;51.248;-0.546;2023-11-21T05:40:59;101204;;;9.43;100.00
62632;BME280;48703;51.248;-0.546;2023-11-21T05:44:02;101210;;;9.41;100.00
62632;BME280;48703;51.248;-0.546;2023-11-21T05:47:04;101214;;;9.42;100.00
62632;BME280;48703;51.248;-0.546;2023-11-21T05:50:06;101221;;;9.39;100.00
62632;BME280;48703;51.248;-0.546;2023-11-21T05:53:08;101228;;;9.36;100.00
62632;BME280;48703;51.248;-0.546;2023-11-21T05:56:10;101234;;;9.35;100.00
62632;BME280;48703;51.248;-0.546;2023-11-21T05:59:12;101249;;;9.34;100.00
62632;BME280;48703;51.248;-0.546;2023-11-21T06:02:14;101258;;;9.34;100.00
62632;BME280;48703;51.248;-0.546;2023-11-21T06:05:17;101264;;;9.32;100.00
62632;BME280;48703;51.248;-0.546;2023-11-21T06:08:19;101266;;;9.32;100.00
62632;BME280;48703;51.248;-0.546;2023-11-21T06:11:21;101273;;;9.31;100.00
62632;BME280;48703;51.248;-0.546;2023-11-21T06:14:23;101275;;;9.30;100.00
62632;BME280;48703;51.248;-0.546;2023-11-21T06:17:25;101277;;;9.29;100.00
62632;BME280;48703;51.248;-0.546;2023-11-21T06:20:27;101285;;;9.27;100.00
62632;BME280;48703;51.248;-0.546;2023-11-21T06:23:29;101292;;;9.26;100.00
62632;BME280;48703;51.248;-0.546;2023-11-21T06:26:31;101299;;;9.23;100.00
62632;BME280;48703;51.248;-0.546;2023-11-21T06:29:33;101300;;;9.21;100.00
62632;BME280;48703;51.248;-0.546;2023-11-21T06:32:35;101304;;;9.21;100.00
62632;BME280;48703;51.248;-0.546;2023-11-21T06:35:38;101307;;;9.20;100.00
62632;BME280;48703;51.248;-0.546;2023-11-21T06:38:40;101312;;;9.17;100.00
62632;BME280;48703;51.248;-0.546;2023-11-21T06:41:42;101316;;;9.16;100.00
62632;BME280;48703;51.248;-0.546;2023-11-21T06:44:44;101319;;;9.14;100.00
62632;BME280;48703;51.248;-0.546;2023-11-21T06:47:46;101320;;;9.10;100.00
62632;BME280;48703;51.248;-0.546;2023-11-21T06:50:48;101326;;;9.10;100.00
62632;BME280;48703;51.248;-0.546;2023-11-21T06:53:50;101330;;;9.09;100.00
62632;BME280;48703;51.248;-0.546;2023-11-21T06:56:52;101336;;;9.09;100.00
62632;BME280;48703;51.248;-0.546;2023-11-21T06:59:54;101346;;;9.06;100.00
62632;BME280;48703;51.248;-0.546;2023-11-21T07:02:57;101349;;;9.05;100.00
62632;BME280;48703;51.248;-0.546;2023-11-21T07:05:59;101350;;;9.06;100.00
62632;BME280;48703;51.248;-0.546;2023-11-21T07:09:01;101354;;;9.05;100.00
62632;BME280;48703;51.248;-0.546;2023-11-21T07:12:03;101363;;;9.03;100.00
62632;BME280;48703;51.248;-0.546;2023-11-21T07:15:06;101369;;;9.03;100.00
62632;BME280;48703;51.248;-0.546;2023-11-21T07:18:07;101376;;;9.02;100.00
62632;BME280;48703;51.248;-0.546;2023-11-21T07:21:09;101382;;;9.02;100.00
62632;BME280;48703;51.248;-0.546;2023-11-21T07:24:11;101388;;;9.01;100.00
62632;BME280;48703;51.248;-0.546;2023-11-21T07:27:13;101401;;;8.99;100.00
62632;BME280;48703;51.248;-0.546;2023-11-21T07:30:16;101408;;;8.97;100.00
62632;BME280;48703;51.248;-0.546;2023-11-21T07:33:18;101416;;;8.95;100.00
62632;BME280;48703;51.248;-0.546;2023-11-21T07:36:20;101417;;;8.93;100.00
62632;BME280;48703;51.248;-0.546;2023-11-21T07:39:22;101425;;;8.90;100.00
62632;BME280;48703;51.248;-0.546;2023-11-21T07:42:24;101430;;;8.87;100.00
62632;BME280;48703;51.248;-0.546;2023-11-21T07:45:26;101435;;;8.87;100.00
62632;BME280;48703;51.248;-0.546;2023-11-21T07:48:28;101439;;;8.87;100.00
62632;BME280;48703;51.248;-0.546;2023-11-21T07:51:30;101439;;;8.87;100.00
62632;BME280;48703;51.248;-0.546;2023-11-21T07:54:32;101442;;;8.87;100.00
62632;BME280;48703;51.248;-0.546;2023-11-21T07:57:35;101445;;;8.87;100.00
62632;BME280;48703;51.248;-0.546;2023-11-21T08:00:37;101450;;;8.87;100.00
62632;BME280;48703;51.248;-0.546;2023-11-21T08:03:39;101453;;;8.90;100.00
62632;BME280;48703;51.248;-0.546;2023-11-21T08:06:41;101455;;;8.91;100.00
62632;BME280;48703;51.248;-0.546;2023-11-21T08:09:43;101463;;;8.92;100.00
62632;BME280;48703;51.248;-0.546;2023-11-21T08:12:45;101466;;;8.92;100.00
62632;BME280;48703;51.248;-0.546;2023-11-21T08:15:47;101472;;;8.92;100.00
62632;BME280;48703;51.248;-0.546;2023-11-21T08:18:49;101476;;;8.93;100.00
62632;BME280;48703;51.248;-0.546;2023-11-21T08:21:51;101480;;;8.94;100.00
62632;BME280;48703;51.248;-0.546;2023-11-21T08:24:53;101487;;;8.95;100.00
62632;BME280;48703;51.248;-0.546;2023-11-21T08:27:56;101490;;;8.97;100.00
62632;BME280;48703;51.248;-0.546;2023-11-21T08:30:58;101491;;;8.98;100.00
62632;BME280;48703;51.248;-0.546;2023-11-21T08:34:00;101494;;;8.97;100.00
62632;BME280;48703;51.248;-0.546;2023-11-21T08:37:02;101501;;;8.95;100.00
62632;BME280;48703;51.248;-0.546;2023-11-21T08:40:05;101507;;;8.96;100.00
62632;BME280;48703;51.248;-0.546;2023-11-21T08:43:06;101511;;;8.97;100.00
62632;BME280;48703;51.248;-0.546;2023-11-21T08:46:08;101517;;;8.97;100.00
62632;BME280;48703;51.248;-0.546;2023-11-21T08:49:10;101517;;;8.99;100.00
62632;BME280;48703;51.248;-0.546;2023-11-21T08:52:12;101519;;;9.03;100.00
62632;BME280;48703;51.248;-0.546;2023-11-21T08:55:15;101522;;;9.05;100.00
62632;BME280;48703;51.248;-0.546;2023-11-21T08:58:17;101525;;;9.07;100.00
62632;BME280;48703;51.248;-0.546;2023-11-21T09:01:19;101526;;;9.08;100.00
62632;BME280;48703;51.248;-0.546;2023-11-21T09:04:21;101529;;;9.11;100.00
62632;BME280;48703;51.248;-0.546;2023-11-21T09:07:23;101535;;;9.12;100.00
62632;BME280;48703;51.248;-0.546;2023-11-21T09:10:25;101537;;;9.14;100.00
62632;BME280;48703;51.248;-0.546;2023-11-21T09:13:27;101539;;;9.16;100.00
62632;BME280;48703;51.248;-0.546;2023-11-21T09:16:29;101539;;;9.17;100.00
62632;BME280;48703;51.248;-0.546;2023-11-21T09:19:31;101542;;;9.18;100.00
62632;BME280;48703;51.248;-0.546;2023-11-21T09:22:33;101547;;;9.22;100.00
62632;BME280;48703;51.248;-0.546;2023-11-21T09:25:35;101555;;;9.25;100.00
62632;BME280;48703;51.248;-0.546;2023-11-21T09:28:38;101563;;;9.28;100.00
62632;BME280;48703;51.248;-0.546;2023-11-21T09:31:40;101565;;;9.30;100.00
62632;BME280;48703;51.248;-0.546;2023-11-21T09:34:42;101569;;;9.32;100.00
62632;BME280;48703;51.248;-0.546;2023-11-21T09:37:44;101572;;;9.33;100.00
62632;BME280;48703;51.248;-0.546;2023-11-21T09:40:46;101576;;;9.36;100.00
62632;BME280;48703;51.248;-0.546;2023-11-21T09:43:48;101580;;;9.36;100.00
62632;BME280;48703;51.248;-0.546;2023-11-21T09:46:50;101585;;;9.37;100.00
62632;BME280;48703;51.248;-0.546;2023-11-21T09:49:52;101591;;;9.37;100.00
62632;BME280;48703;51.248;-0.546;2023-11-21T09:52:55;101596;;;9.36;100.00
62632;BME280;48703;51.248;-0.546;2023-11-21T09:55:56;101596;;;9.38;100.00
62632;BME280;48703;51.248;-0.546;2023-11-21T09:58:59;101601;;;9.39;100.00
62632;BME280;48703;51.248;-0.546;2023-11-21T10:02:01;101603;;;9.41;100.00
62632;BME280;48703;51.248;-0.546;2023-11-21T10:05:03;101614;;;9.43;100.00
62632;BME280;48703;51.248;-0.546;2023-11-21T10:08:07;101614;;;9.45;100.00
62632;BME280;48703;51.248;-0.546;2023-11-21T10:11:07;101616;;;9.49;100.00
62632;BME280;48703;51.248;-0.546;2023-11-21T10:14:10;101614;;;9.51;100.00
62632;BME280;48703;51.248;-0.546;2023-11-21T10:17:12;101618;;;9.55;100.00
62632;BME280;48703;51.248;-0.546;2023-11-21T10:20:14;101617;;;9.56;100.00
62632;BME280;48703;51.248;-0.546;2023-11-21T10:23:15;101619;;;9.60;100.00
62632;BME280;48703;51.248;-0.546;2023-11-21T10:26:18;101618;;;9.62;100.00
62632;BME280;48703;51.248;-0.546;2023-11-21T10:29:20;101616;;;9.62;100.00
62632;BME280;48703;51.248;-0.546;2023-11-21T10:32:22;101618;;;9.63;100.00
62632;BME280;48703;51.248;-0.546;2023-11-21T10:35:24;101618;;;9.63;100.00
62632;BME280;48703;51.248;-0.546;2023-11-21T10:38:26;101623;;;9.62;100.00
62632;BME280;48703;51.248;-0.546;2023-11-21T10:41:28;101615;;;9.60;100.00
62632;BME280;48703;51.248;-0.546;2023-11-21T10:44:30;101617;;;9.61;100.00
62632;BME280;48703;51.248;-0.546;2023-11-21T10:47:32;101620;;;9.60;100.00
62632;BME280;48703;51.248;-0.546;2023-11-21T10:50:34;101633;;;9.61;100.00
62632;BME280;48703;51.248;-0.546;2023-11-21T10:53:40;101638;;;9.57;100.00
62632;BME280;48703;51.248;-0.546;2023-11-21T10:56:39;101638;;;9.58;100.00
62632;BME280;48703;51.248;-0.546;2023-11-21T10:59:41;101636;;;9.61;100.00
62632;BME280;48703;51.248;-0.546;2023-11-21T11:02:43;101632;;;9.60;100.00
62632;BME280;48703;51.248;-0.546;2023-11-21T11:05:45;101632;;;9.63;100.00
62632;BME280;48703;51.248;-0.546;2023-11-21T11:08:47;101630;;;9.64;100.00
62632;BME280;48703;51.248;-0.546;2023-11-21T11:11:49;101630;;;9.66;100.00
62632;BME280;48703;51.248;-0.546;2023-11-21T11:14:51;101630;;;9.68;100.00
62632;BME280;48703;51.248;-0.546;2023-11-21T11:17:54;101628;;;9.67;100.00
62632;BME280;48703;51.248;-0.546;2023-11-21T11:20:56;101627;;;9.66;100.00
62632;BME280;48703;51.248;-0.546;2023-11-21T11:24:02;101631;;;9.67;100.00
62632;BME280;48703;51.248;-0.546;2023-11-21T11:27:01;101632;;;9.69;100.00
62632;BME280;48703;51.248;-0.546;2023-11-21T11:30:09;101633;;;9.66;100.00
62632;BME280;48703;51.248;-0.546;2023-11-21T11:33:06;101634;;;9.65;100.00
62632;BME280;48703;51.248;-0.546;2023-11-21T11:36:06;101639;;;9.65;100.00
62632;BME280;48703;51.248;-0.546;2023-11-21T11:39:26;101644;;;9.67;100.00
62632;BME280;48703;51.248;-0.546;2023-11-21T11:42:11;101644;;;9.68;100.00
62632;BME280;48703;51.248;-0.546;2023-11-21T11:44:47;101641;;;9.68;100.00
62632;BME280;48703;51.248;-0.546;2023-11-21T11:47:13;101644;;;9.71;100.00
62632;BME280;48703;51.248;-0.546;2023-11-21T11:50:17;101645;;;9.75;100.00
62632;BME280;48703;51.248;-0.546;2023-11-21T11:53:18;101648;;;9.79;100.00
62632;BME280;48703;51.248;-0.546;2023-11-21T11:56:22;101653;;;9.81;100.00
62632;BME280;48703;51.248;-0.546;2023-11-21T11:59:22;101657;;;9.84;100.00
62632;BME280;48703;51.248;-0.546;2023-11-21T12:02:24;101660;;;9.87;100.00
62632;BME280;48703;51.248;-0.546;2023-11-21T12:05:27;101663;;;9.89;100.00
62632;BME280;48703;51.248;-0.546;2023-11-21T12:08:28;101665;;;9.91;100.00
62632;BME280;48703;51.248;-0.546;2023-11-21T12:11:30;101670;;;9.94;100.00
62632;BME280;48703;51.248;-0.546;2023-11-21T12:14:32;101673;;;9.94;100.00
62632;BME280;48703;51.248;-0.546;2023-11-21T12:17:35;101674;;;9.96;100.00
62632;BME280;48703;51.248;-0.546;2023-11-21T12:20:37;101679;;;9.95;100.00
62632;BME280;48703;51.248;-0.546;2023-11-21T12:23:39;101683;;;9.95;100.00
62632;BME280;48703;51.248;-0.546;2023-11-21T12:26:41;101685;;;9.95;100.00
62632;BME280;48703;51.248;-0.546;2023-11-21T12:29:43;101697;;;9.99;100.00
62632;BME280;48703;51.248;-0.546;2023-11-21T12:32:47;101703;;;10.00;100.00
62632;BME280;48703;51.248;-0.546;2023-11-21T12:35:47;101705;;;10.00;100.00
62632;BME280;48703;51.248;-0.546;2023-11-21T12:38:49;101710;;;10.00;100.00
62632;BME280;48703;51.248;-0.546;2023-11-21T12:41:51;101711;;;10.00;100.00
62632;BME280;48703;51.248;-0.546;2023-11-21T12:45:06;101714;;;9.98;100.00
62632;BME280;48703;51.248;-0.546;2023-11-21T12:47:56;101723;;;9.99;100.00
62632;BME280;48703;51.248;-0.546;2023-11-21T12:50:58;101729;;;9.99;100.00
62632;BME280;48703;51.248;-0.546;2023-11-21T12:54:00;101735;;;9.97;100.00
62632;BME280;48703;51.248;-0.546;2023-11-21T12:57:02;101732;;;9.93;100.00
62632;BME280;48703;51.248;-0.546;2023-11-21T13:00:04;101728;;;9.93;100.00
62632;BME280;48703;51.248;-0.546;2023-11-21T13:03:07;101735;;;9.93;100.00
62632;BME280;48703;51.248;-0.546;2023-11-21T13:06:08;101735;;;9.93;100.00
62632;BME280;48703;51.248;-0.546;2023-11-21T13:09:10;101738;;;9.94;100.00
62632;BME280;48703;51.248;-0.546;2023-11-21T13:12:12;101740;;;9.96;100.00
62632;BME280;48703;51.248;-0.546;2023-11-21T13:15:14;101740;;;9.99;100.00
62632;BME280;48703;51.248;-0.546;2023-11-21T13:18:17;101744;;;10.01;100.00
62632;BME280;48703;51.248;-0.546;2023-11-21T13:21:19;101747;;;10.04;100.00
62632;BME280;48703;51.248;-0.546;2023-11-21T13:24:21;101746;;;10.08;100.00
62632;BME280;48703;51.248;-0.546;2023-11-21T13:27:23;101743;;;10.09;100.00
62632;BME280;48703;51.248;-0.546;2023-11-21T13:30:25;101747;;;10.10;100.00
62632;BME280;48703;51.248;-0.546;2023-11-21T13:33:27;101751;;;10.12;100.00
62632;BME280;48703;51.248;-0.546;2023-11-21T13:36:29;101752;;;10.13;100.00
62632;BME280;48703;51.248;-0.546;2023-11-21T13:39:31;101752;;;10.14;100.00
62632;BME280;48703;51.248;-0.546;2023-11-21T13:42:33;101755;;;10.15;100.00
62632;BME280;48703;51.248;-0.546;2023-11-21T13:45:35;101760;;;10.16;100.00
62632;BME280;48703;51.248;-0.546;2023-11-21T13:48:38;101757;;;10.18;100.00
62632;BME280;48703;51.248;-0.546;2023-11-21T13:51:40;101759;;;10.18;100.00
62632;BME280;48703;51.248;-0.546;2023-11-21T13:54:42;101765;;;10.18;100.00
62632;BME280;48703;51.248;-0.546;2023-11-21T13:57:44;101775;;;10.13;100.00
62632;BME280;48703;51.248;-0.546;2023-11-21T14:00:46;101779;;;10.08;100.00
62632;BME280;48703;51.248;-0.546;2023-11-21T14:03:48;101783;;;10.05;100.00
62632;BME280;48703;51.248;-0.546;2023-11-21T14:06:50;101790;;;10.04;100.00
62632;BME280;48703;51.248;-0.546;2023-11-21T14:09:52;101796;;;10.05;100.00
62632;BME280;48703;51.248;-0.546;2023-11-21T14:12:54;101801;;;10.02;100.00
62632;BME280;48703;51.248;-0.546;2023-11-21T14:15:56;101804;;;9.96;100.00
62632;BME280;48703;51.248;-0.546;2023-11-21T14:18:59;101810;;;9.91;100.00
62632;BME280;48703;51.248;-0.546;2023-11-21T14:22:01;101810;;;9.87;100.00
62632;BME280;48703;51.248;-0.546;2023-11-21T14:25:03;101809;;;9.87;100.00
62632;BME280;48703;51.248;-0.546;2023-11-21T14:28:05;101814;;;9.84;100.00
62632;BME280;48703;51.248;-0.546;2023-11-21T14:31:07;101824;;;9.83;100.00
62632;BME280;48703;51.248;-0.546;2023-11-21T14:34:09;101830;;;9.78;100.00
62632;BME280;48703;51.248;-0.546;2023-11-21T14:37:11;101831;;;9.75;100.00
62632;BME280;48703;51.248;-0.546;2023-11-21T14:40:13;101836;;;9.74;100.00
62632;BME280;48703;51.248;-0.546;2023-11-21T14:43:15;101837;;;9.72;100.00
62632;BME280;48703;51.248;-0.546;2023-11-21T14:46:17;101843;;;9.70;100.00
62632;BME280;48703;51.248;-0.546;2023-11-21T14:49:20;101846;;;9.69;100.00
62632;BME280;48703;51.248;-0.546;2023-11-21T14:52:22;101851;;;9.69;100.00
62632;BME280;48703;51.248;-0.546;2023-11-21T14:55:24;101859;;;9.70;100.00
62632;BME280;48703;51.248;-0.546;2023-11-21T14:58:26;101861;;;9.67;100.00
62632;BME280;48703;51.248;-0.546;2023-11-21T15:01:31;101871;;;9.62;100.00
62632;BME280;48703;51.248;-0.546;2023-11-21T15:04:30;101875;;;9.60;100.00
62632;BME280;48703;51.248;-0.546;2023-11-21T15:07:32;101883;;;9.59;100.00
62632;BME280;48703;51.248;-0.546;2023-11-21T15:10:34;101889;;;9.56;100.00
62632;BME280;48703;51.248;-0.546;2023-11-21T15:13:36;101891;;;9.53;100.00
62632;BME280;48703;51.248;-0.546;2023-11-21T15:16:38;101888;;;9.54;100.00
62632;BME280;48703;51.248;-0.546;2023-11-21T15:19:41;101883;;;9.48;100.00
62632;BME280;48703;51.248;-0.546;2023-11-21T15:22:43;101893;;;9.46;100.00
62632;BME280;48703;51.248;-0.546;2023-11-21T15:25:45;101901;;;9.44;100.00
62632;BME280;48703;51.248;-0.546;2023-11-21T15:28:47;101901;;;9.40;100.00
62632;BME280;48703;51.248;-0.546;2023-11-21T15:31:49;101905;;;9.35;100.00
62632;BME280;48703;51.248;-0.546;2023-11-21T15:34:51;101906;;;9.31;100.00
62632;BME280;48703;51.248;-0.546;2023-11-21T15:37:53;101907;;;9.27;100.00
62632;BME280;48703;51.248;-0.546;2023-11-21T15:40:55;101906;;;9.23;100.00
62632;BME280;48703;51.248;-0.546;2023-11-21T15:43:57;101904;;;9.19;100.00
62632;BME280;48703;51.248;-0.546;2023-11-21T15:47:00;101910;;;9.17;100.00
62632;BME280;48703;51.248;-0.546;2023-11-21T15:50:02;101904;;;9.15;100.00
62632;BME280;48703;51.248;-0.546;2023-11-21T15:53:04;101904;;;9.12;100.00
62632;BME280;48703;51.248;-0.546;2023-11-21T15:56:06;101914;;;9.07;100.00
62632;BME280;48703;51.248;-0.546;2023-11-21T15:59:08;101929;;;9.04;100.00
62632;BME280;48703;51.248;-0.546;2023-11-21T16:02:10;101935;;;8.99;100.00
62632;BME280;48703;51.248;-0.546;2023-11-21T16:05:12;101935;;;8.97;100.00
62632;BME280;48703;51.248;-0.546;2023-11-21T16:08:14;101940;;;8.93;100.00
62632;BME280;48703;51.248;-0.546;2023-11-21T16:11:16;101932;;;8.90;100.00
62632;BME280;48703;51.248;-0.546;2023-11-21T16:14:18;101941;;;8.89;100.00